Time;durP1;ratioP1;P1;durP2;ratioP2;P2;SDS_P1;SDS_P2;PMS_P1;PMS_P2;Temp;Humidity;BMP_temperature;BMP_pressure;BME280_temperature;BME280_humidity;BME280_pressure;Samples;Min_cycle;Max_cycle;Signal;HPM_P1;HPM_P2
2022/03/26 00:00:16;;;;;;;153.63;71.35;;;7.10;99.90;;;;;;5006829;28;20040;-77
2022/03/26 00:02:57;;;;;;;153.38;72.65;;;6.50;99.90;;;;;;5039394;28;20034;-79
2022/03/26 00:05:24;;;;;;;168.10;75.40;;;7.00;99.90;;;;;;5028300;28;20048;-80
2022/03/26 00:08:01;;;;;;;163.82;73.45;;;8.60;99.90;;;;;;5043117;28;20113;-79
2022/03/26 00:10:28;;;;;;;166.88;72.65;;;6.90;99.90;;;;;;5068190;28;20044;-80
2022/03/26 00:12:58;;;;;;;156.27;72.63;;;7.10;99.90;;;;;;5047573;28;20048;-79
2022/03/26 00:15:58;;;;;;;165.77;75.65;;;5.80;99.90;;;;;;5044433;28;20302;-79
2022/03/26 00:18:46;;;;;;;158.30;74.90;;;7.10;99.90;;;;;;4988453;28;20504;-80
2022/03/26 00:21:25;;;;;;;166.88;75.40;;;7.20;99.90;;;;;;4964641;28;20050;-79
2022/03/26 00:23:56;;;;;;;166.05;75.80;;;6.90;99.90;;;;;;5023880;28;20059;-79
2022/03/26 00:26:28;;;;;;;166.85;73.95;;;6.90;99.90;;;;;;5004749;28;20041;-77
2022/03/26 00:29:08;;;;;;;165.95;75.80;;;7.40;99.90;;;;;;5048708;28;20036;-79
2022/03/26 00:31:45;;;;;;;170.23;76.05;;;6.80;99.90;;;;;;5029903;28;20072;-80
2022/03/26 00:34:14;;;;;;;156.88;75.90;;;6.60;99.90;;;;;;5047197;28;20048;-79
2022/03/26 00:36:43;;;;;;;165.13;74.63;;;6.60;99.90;;;;;;5043931;28;20052;-79
2022/03/26 00:39:16;;;;;;;165.00;73.18;;;7.00;99.90;;;;;;5041002;28;20045;-77
2022/03/26 00:41:48;;;;;;;155.98;73.20;;;7.10;99.90;;;;;;5052857;28;20048;-79
2022/03/26 00:44:39;;;;;;;163.30;72.75;;;7.50;99.90;;;;;;5067155;28;20098;-78
2022/03/26 00:47:06;;;;;;;160.45;74.00;;;5.30;99.90;;;;;;5037219;28;20041;-80
2022/03/26 00:49:35;;;;;;;153.40;71.78;;;6.30;99.90;;;;;;5008086;28;20061;-77
2022/03/26 00:52:06;;;;;;;152.73;70.95;;;6.70;99.90;;;;;;5033422;28;20091;-80
2022/03/26 00:54:38;;;;;;;158.50;73.50;;;6.40;99.90;;;;;;5035307;28;20037;-78
2022/03/26 00:57:09;;;;;;;152.52;70.25;;;6.20;99.90;;;;;;5049390;28;20130;-79
2022/03/26 00:59:35;;;;;;;160.18;71.82;;;6.50;99.90;;;;;;5030312;28;20402;-79
2022/03/26 01:02:01;;;;;;;162.10;72.35;;;6.30;99.90;;;;;;5029393;28;20131;-78
2022/03/26 01:04:30;;;;;;;162.13;73.82;;;6.50;99.90;;;;;;5048776;28;20040;-77
2022/03/26 01:06:55;;;;;;;;;;;7.40;99.90;;;;;;5028636;28;20377;-78
2022/03/26 01:09:29;;;;;;;172.40;73.60;;;6.00;99.90;;;;;;5057870;28;19977;-78
2022/03/26 01:11:55;;;;;;;164.50;74.13;;;7.80;99.90;;;;;;5023981;28;20037;-78
2022/03/26 01:14:32;;;;;;;165.57;74.05;;;5.90;99.90;;;;;;5042780;28;20662;-79
2022/03/26 01:17:19;;;;;;;162.90;72.53;;;5.60;99.90;;;;;;4990295;28;20054;-78
2022/03/26 01:20:08;;;;;;;168.25;75.95;;;6.20;99.90;;;;;;4978532;28;20065;-79
2022/03/26 01:22:37;;;;;;;172.57;74.78;;;6.10;99.90;;;;;;4971881;28;20067;-79
2022/03/26 01:25:06;;;;;;;168.68;76.10;;;6.50;99.90;;;;;;4985987;28;20504;-79
2022/03/26 01:27:38;;;;;;;169.25;77.50;;;6.00;99.90;;;;;;4986065;28;20077;-79
2022/03/26 01:30:17;;;;;;;176.90;78.95;;;6.10;99.90;;;;;;4975498;28;20042;-78
2022/03/26 01:32:46;;;;;;;178.82;76.18;;;6.00;99.90;;;;;;4963616;28;20051;-79
2022/03/26 01:35:12;;;;;;;165.95;73.90;;;4.90;99.90;;;;;;4944355;28;20660;-79
2022/03/26 01:37:40;;;;;;;175.55;75.45;;;6.00;99.90;;;;;;4976367;28;20065;-78
2022/03/26 01:40:12;;;;;;;183.52;79.38;;;7.20;99.90;;;;;;4964508;28;20552;-80
2022/03/26 01:42:44;;;;;;;183.40;80.05;;;5.90;99.90;;;;;;4973968;28;20064;-79
2022/03/26 01:45:31;;;;;;;163.88;75.25;;;5.80;99.90;;;;;;4953224;28;20114;-79
2022/03/26 01:48:01;;;;;;;180.73;77.82;;;5.90;99.90;;;;;;4992155;28;20112;-80
2022/03/26 01:50:31;;;;;;;179.73;78.72;;;5.90;99.90;;;;;;5038725;28;20088;-79
2022/03/26 01:53:02;;;;;;;185.88;79.43;;;5.70;99.90;;;;;;5035424;28;20041;-79
2022/03/26 01:55:35;;;;;;;184.18;79.97;;;5.70;99.90;;;;;;5045569;28;20045;-79
2022/03/26 01:58:05;;;;;;;163.95;73.68;;;7.20;99.90;;;;;;5019562;28;20041;-79
2022/03/26 02:00:35;;;;;;;172.27;75.82;;;6.60;99.90;;;;;;5010604;28;20110;-78
2022/03/26 02:03:10;;;;;;;162.10;72.00;;;5.80;99.90;;;;;;5030361;28;20045;-78
2022/03/26 02:05:36;;;;;;;178.52;76.95;;;5.40;99.90;;;;;;5025145;28;20044;-79
2022/03/26 02:08:06;;;;;;;169.50;75.60;;;5.70;99.90;;;;;;5040564;28;20064;-79
2022/03/26 02:10:32;;;;;;;176.02;75.35;;;5.60;99.90;;;;;;5022119;28;20048;-78
2022/03/26 02:13:02;;;;;;;168.38;75.18;;;6.40;99.90;;;;;;5041265;28;20044;-78
2022/03/26 02:15:33;;;;;;;194.43;80.10;;;4.20;99.90;;;;;;5026228;28;20451;-79
2022/03/26 02:18:03;;;;;;;172.75;75.65;;;5.60;99.90;;;;;;5054940;28;20087;-79
2022/03/26 02:20:31;;;;;;;170.00;74.05;;;5.40;99.90;;;;;;5022035;28;20048;-79
2022/03/26 02:23:01;;;;;;;164.32;71.35;;;5.60;99.90;;;;;;5018600;28;20040;-79
2022/03/26 02:25:28;;;;;;;156.93;70.25;;;6.60;99.90;;;;;;5035458;28;20068;-78
2022/03/26 02:27:55;;;;;;;171.30;75.05;;;5.40;99.90;;;;;;5048361;28;20080;-79
2022/03/26 02:30:40;;;;;;;166.77;72.30;;;5.60;99.90;;;;;;5035039;28;20056;-78
2022/03/26 02:33:14;;;;;;;172.80;73.45;;;7.20;99.90;;;;;;5031614;28;20162;-78
2022/03/26 02:35:44;;;;;;;160.20;71.45;;;5.50;99.90;;;;;;5023830;28;20044;-79
2022/03/26 02:38:10;;;;;;;167.25;73.20;;;5.60;99.90;;;;;;5030042;28;20044;-79
2022/03/26 02:40:44;;;;;;;182.77;75.47;;;7.10;99.90;;;;;;5042508;28;20095;-79
2022/03/26 02:43:17;;;;;;;171.90;71.40;;;5.20;99.90;;;;;;5049613;28;20037;-78
2022/03/26 02:45:50;;;;;;;173.85;75.70;;;5.20;99.90;;;;;;5030259;28;20072;-79
2022/03/26 02:48:21;;;;;;;170.07;71.90;;;4.20;99.90;;;;;;5049337;28;20033;-78
2022/03/26 02:50:54;;;;;;;166.68;73.68;;;5.30;99.90;;;;;;5039760;28;20052;-79
2022/03/26 02:53:20;;;;;;;167.93;73.72;;;6.30;99.90;;;;;;5045630;28;20075;-79
2022/03/26 02:55:47;;;;;;;160.27;72.35;;;4.30;99.90;;;;;;5039144;28;20057;-81
2022/03/26 02:58:37;;;;;;;157.40;71.18;;;6.70;99.90;;;;;;5042739;28;20090;-80
2022/03/26 03:01:08;;;;;;;183.38;77.35;;;4.70;99.90;;;;;;5040699;28;20125;-79
2022/03/26 03:03:44;;;;;;;190.30;80.07;;;6.50;99.90;;;;;;5034711;28;20044;-79
2022/03/26 03:06:25;;;;;;;184.52;76.57;;;5.60;99.90;;;;;;5048976;28;20041;-80
2022/03/26 03:09:00;;;;;;;163.43;72.00;;;5.20;99.90;;;;;;5022232;28;20040;-80
2022/03/26 03:11:26;;;;;;;180.40;76.53;;;6.20;99.90;;;;;;5024806;28;20049;-79
2022/03/26 03:14:00;;;;;;;196.05;78.18;;;4.90;99.90;;;;;;5037856;28;20557;-78
2022/03/26 03:16:30;;;;;;;195.85;80.88;;;4.00;99.90;;;;;;5024476;28;20060;-78
2022/03/26 03:19:15;;;;;;;187.80;80.88;;;3.90;99.90;;;;;;5024342;28;20055;-79
2022/03/26 03:21:51;;;;;;;196.63;78.90;;;5.20;99.90;;;;;;5042473;28;20120;-79
2022/03/26 03:24:19;;;;;;;202.80;82.88;;;5.10;99.90;;;;;;5026105;28;20041;-79
2022/03/26 03:26:55;;;;;;;203.77;82.72;;;6.60;99.90;;;;;;5022274;28;20053;-79
2022/03/26 03:29:31;;;;;;;187.60;79.22;;;6.80;99.90;;;;;;5018256;28;20101;-78
2022/03/26 03:32:12;;;;;;;206.63;81.60;;;6.60;99.90;;;;;;5038401;28;20033;-78
2022/03/26 03:35:06;;;;;;;194.10;80.18;;;4.90;99.90;;;;;;5063828;28;20041;-78
2022/03/26 03:37:41;;;;;;;204.38;83.90;;;5.90;99.90;;;;;;5021308;28;20095;-79
2022/03/26 03:40:08;;;;;;;195.77;80.30;;;4.30;99.90;;;;;;5025553;28;20037;-80
2022/03/26 03:42:35;;;;;;;204.05;83.03;;;5.10;99.90;;;;;;5023883;28;20060;-80
2022/03/26 03:45:16;;;;;;;195.77;83.03;;;5.10;99.90;;;;;;5022407;28;20037;-78
2022/03/26 03:47:51;;;;;;;201.38;81.28;;;5.00;99.90;;;;;;5039140;28;20407;-78
2022/03/26 03:50:17;;;;;;;199.25;81.38;;;5.10;99.90;;;;;;5066526;28;20119;-79
2022/03/26 03:52:46;;;;;;;196.43;82.50;;;4.80;99.90;;;;;;5039095;28;20457;-79
2022/03/26 03:55:18;;;;;;;197.88;82.45;;;5.30;99.90;;;;;;5057955;28;20092;-78
2022/03/26 03:57:50;;;;;;;197.27;80.80;;;6.80;99.90;;;;;;5055349;28;20139;-79
2022/03/26 04:00:16;;;;;;;204.02;83.47;;;5.30;99.90;;;;;;5045973;28;20068;-80
2022/03/26 04:02:43;;;;;;;210.68;84.32;;;6.00;99.90;;;;;;5052266;28;20044;-79
2022/03/26 04:05:10;;;;;;;202.50;82.38;;;6.70;99.90;;;;;;5055119;28;20082;-80
2022/03/26 04:07:41;;;;;;;204.05;82.65;;;4.60;99.90;;;;;;5049126;28;20041;-80
2022/03/26 04:10:16;;;;;;;217.43;83.85;;;6.10;99.90;;;;;;5066112;28;20064;-77
2022/03/26 04:12:45;;;;;;;206.80;82.85;;;5.40;99.90;;;;;;5036005;28;20067;-78
2022/03/26 04:15:24;;;;;;;203.23;81.45;;;5.00;99.90;;;;;;5039577;28;20388;-79
2022/03/26 04:17:52;;;;;;;205.05;80.25;;;6.70;99.90;;;;;;5047309;28;20488;-79
2022/03/26 04:20:23;;;;;;;221.68;86.30;;;6.40;99.90;;;;;;5033698;28;20037;-79
2022/03/26 04:23:00;;;;;;;197.85;78.88;;;6.50;99.90;;;;;;5032430;28;20131;-79
2022/03/26 04:25:35;;;;;;;221.10;84.13;;;4.90;99.90;;;;;;5028203;28;20044;-79
2022/03/26 04:28:01;;;;;;;207.55;82.47;;;6.30;99.90;;;;;;5053603;28;20041;-79
2022/03/26 04:30:37;;;;;;;192.43;78.78;;;4.60;99.90;;;;;;5037905;28;20044;-79
2022/03/26 04:33:06;;;;;;;184.38;79.82;;;5.00;99.90;;;;;;5034696;28;20041;-79
2022/03/26 04:35:35;;;;;;;209.75;80.53;;;4.90;99.90;;;;;;5028400;28;20045;-78
2022/03/26 04:38:08;;;;;;;210.77;82.45;;;4.80;99.90;;;;;;5035444;28;20400;-78
2022/03/26 04:40:34;;;;;;;185.75;78.68;;;6.10;99.90;;;;;;5027041;28;20051;-79
2022/03/26 04:43:00;;;;;;;187.85;76.97;;;4.90;99.90;;;;;;5041247;28;20931;-79
2022/03/26 04:45:38;;;;;;;185.32;78.35;;;6.10;99.90;;;;;;5044206;28;20040;-80
2022/03/26 04:48:05;;;;;;;204.90;79.72;;;4.80;99.90;;;;;;5031417;28;20045;-79
2022/03/26 04:50:37;;;;;;;192.75;78.55;;;5.00;99.90;;;;;;5070187;28;20044;-79
2022/03/26 04:53:09;;;;;;;202.20;80.10;;;6.50;99.90;;;;;;5054903;28;20084;-78
2022/03/26 04:55:43;;;;;;;202.38;81.90;;;4.80;99.90;;;;;;5021547;28;20053;-78
2022/03/26 04:58:12;;;;;;;183.93;76.47;;;4.80;99.90;;;;;;5029276;28;20044;-78
2022/03/26 05:00:49;;;;;;;177.38;77.05;;;5.00;99.90;;;;;;5058709;28;20502;-78
2022/03/26 05:03:24;;;;;;;188.45;78.00;;;5.10;99.90;;;;;;5021557;28;20041;-79
2022/03/26 05:05:50;;;;;;;177.35;76.25;;;5.00;99.90;;;;;;5028771;28;20483;-79
2022/03/26 05:08:27;;;;;;;175.13;74.57;;;6.70;99.90;;;;;;5044829;28;20400;-79
2022/03/26 05:10:54;;;;;;;179.45;75.45;;;4.90;99.90;;;;;;5035212;28;20045;-79
2022/03/26 05:13:45;;;;;;;172.20;72.90;;;5.50;99.90;;;;;;5021800;28;20049;-77
2022/03/26 05:16:21;;;;;;;167.88;72.68;;;4.30;99.90;;;;;;5057120;28;20055;-79
2022/03/26 05:18:50;;;;;;;166.00;71.80;;;6.50;99.90;;;;;;5043060;28;20483;-78
2022/03/26 05:21:21;;;;;;;166.10;72.57;;;4.10;99.90;;;;;;5021135;28;20053;-78
2022/03/26 05:23:57;;;;;;;170.15;73.32;;;5.20;99.90;;;;;;5047593;28;20052;-79
2022/03/26 05:26:35;;;;;;;162.48;71.35;;;5.60;99.90;;;;;;5048952;28;20057;-77
2022/03/26 05:29:10;;;;;;;175.25;71.65;;;6.40;99.90;;;;;;5028017;28;20579;-79
2022/03/26 05:31:40;;;;;;;157.90;68.60;;;5.20;99.90;;;;;;5032741;28;20050;-79
2022/03/26 05:34:09;;;;;;;160.23;69.95;;;4.90;99.90;;;;;;5060299;28;20036;-79
2022/03/26 05:36:40;;;;;;;152.23;66.82;;;7.10;99.90;;;;;;5040684;28;20103;-79
2022/03/26 05:39:08;;;;;;;155.48;69.78;;;6.60;99.90;;;;;;5051427;28;20444;-80
2022/03/26 05:41:34;;;;;;;151.95;68.07;;;6.50;99.90;;;;;;5062898;28;20045;-78
2022/03/26 05:44:08;;;;;;;153.23;67.93;;;5.30;99.90;;;;;;5025140;28;20040;-80
2022/03/26 05:46:36;;;;;;;150.25;68.50;;;7.40;99.90;;;;;;5080041;28;20053;-78
2022/03/26 05:49:05;;;;;;;159.18;67.72;;;6.10;99.90;;;;;;5070951;28;20100;-79
2022/03/26 05:51:34;;;;;;;152.98;68.15;;;6.20;99.90;;;;;;5038367;28;20071;-79
2022/03/26 05:54:03;;;;;;;154.90;66.90;;;5.50;99.90;;;;;;5068885;28;20040;-78
2022/03/26 05:59:31;;;;;;;151.35;65.57;;;6.90;99.90;;;;;;5013935;28;20049;-79
2022/03/26 06:01:57;;;;;;;144.88;66.57;;;5.30;99.90;;;;;;5039649;28;20076;-79
2022/03/26 06:04:28;;;;;;;163.93;68.45;;;6.70;99.90;;;;;;5053906;28;20079;-78
2022/03/26 06:06:59;;;;;;;154.43;65.80;;;5.50;99.90;;;;;;5027423;28;20102;-79
2022/03/26 06:09:25;;;;;;;148.52;67.15;;;5.30;99.90;;;;;;5046274;28;20044;-78
2022/03/26 06:11:51;;;;;;;143.77;65.03;;;5.70;99.90;;;;;;5044704;28;20450;-78
2022/03/26 06:14:32;;;;;;;147.05;68.88;;;5.40;99.90;;;;;;5054948;28;20072;-78
2022/03/26 06:17:07;;;;;;;159.13;69.23;;;6.30;99.90;;;;;;5047428;28;20056;-79
2022/03/26 06:19:36;;;;;;;153.43;67.18;;;4.40;99.90;;;;;;5029783;28;20053;-79
2022/03/26 06:22:05;;;;;;;154.02;66.95;;;5.80;99.90;;;;;;5021427;28;20106;-78
2022/03/26 06:24:41;;;;;;;157.73;67.72;;;6.00;99.90;;;;;;5028216;28;20060;-79
2022/03/26 06:27:15;;;;;;;150.15;66.93;;;7.50;99.90;;;;;;5029136;28;20040;-79
2022/03/26 06:29:53;;;;;;;146.65;66.65;;;7.00;99.90;;;;;;5038932;28;20433;-79
2022/03/26 06:32:22;;;;;;;153.02;67.20;;;8.00;99.90;;;;;;5009616;28;20403;-79
2022/03/26 06:35:05;;;;;;;;;;;;;;;;;;;;;
2022/03/26 06:37:32;;;;;;;154.30;66.68;;;6.30;99.90;;;;;;5053231;28;19920;-79
2022/03/26 06:40:08;;;;;;;144.60;65.43;;;6.40;99.90;;;;;;5018277;28;20041;-79
2022/03/26 06:42:40;;;;;;;153.52;67.28;;;6.50;99.90;;;;;;5007225;28;20053;-80
2022/03/26 06:45:09;;;;;;;141.45;65.90;;;7.60;99.90;;;;;;5069176;28;20092;-79
2022/03/26 06:47:41;;;;;;;134.98;64.25;;;6.70;99.90;;;;;;5033834;28;20067;-79
2022/03/26 06:50:10;;;;;;;139.30;64.53;;;6.50;99.90;;;;;;5031897;28;20499;-80
2022/03/26 06:52:36;;;;;;;136.20;64.53;;;7.00;99.90;;;;;;5032228;28;20056;-80
2022/03/26 06:55:05;;;;;;;124.18;62.08;;;7.20;99.90;;;;;;5036589;28;20041;-78
2022/03/26 06:57:32;;;;;;;132.88;62.95;;;7.80;99.90;;;;;;5038041;28;20128;-79
2022/03/26 07:00:00;;;;;;;124.20;60.28;;;8.20;99.90;;;;;;5021737;28;20048;-79
2022/03/26 07:02:26;;;;;;;125.63;60.67;;;9.50;99.90;;;;;;5009674;28;20417;-80
2022/03/26 07:04:57;;;;;;;114.45;60.67;;;10.60;99.90;;;;;;5006429;28;20045;-79
2022/03/26 07:07:35;;;;;;;111.15;57.30;;;9.70;99.90;;;;;;5052678;28;20132;-79
2022/03/26 07:10:08;;;;;;;109.75;58.40;;;10.60;99.90;;;;;;5030957;28;20123;-78
2022/03/26 07:12:48;;;;;;;112.13;58.50;;;9.80;99.90;;;;;;5051801;28;20096;-79
2022/03/26 07:15:22;;;;;;;114.30;57.92;;;9.90;99.90;;;;;;5058316;28;20057;-79
2022/03/26 07:17:53;;;;;;;108.55;54.92;;;9.50;99.90;;;;;;5039151;28;20053;-80
2022/03/26 07:20:21;;;;;;;109.95;54.78;;;11.70;99.90;;;;;;5023102;28;20072;-79
2022/03/26 07:23:02;;;;;;;105.10;55.67;;;10.10;99.90;;;;;;5022359;28;20080;-83
2022/03/26 07:25:43;;;;;;;105.63;53.63;;;10.40;99.90;;;;;;5028724;28;20376;-79
2022/03/26 07:28:20;;;;;;;95.38;51.60;;;10.50;99.90;;;;;;5034260;28;20488;-79
2022/03/26 07:31:14;;;;;;;103.35;55.10;;;10.50;99.90;;;;;;5010563;28;20049;-79
2022/03/26 07:33:52;;;;;;;95.72;50.78;;;10.80;99.90;;;;;;5018357;28;20045;-81
2022/03/26 07:36:25;;;;;;;101.57;52.08;;;12.00;99.90;;;;;;5038421;28;20044;-81
2022/03/26 07:38:51;;;;;;;98.40;52.38;;;10.50;99.90;;;;;;5042117;28;20097;-81
2022/03/26 07:41:22;;;;;;;98.00;52.00;;;9.20;99.90;;;;;;5026253;28;20111;-81
2022/03/26 07:43:54;;;;;;;92.53;49.13;;;11.30;99.90;;;;;;5064423;28;20044;-81
2022/03/26 07:46:44;;;;;;;97.38;49.70;;;12.20;99.90;;;;;;5026782;28;20636;-82
2022/03/26 07:49:15;;;;;;;95.13;50.50;;;10.70;99.90;;;;;;5021055;28;20071;-82
2022/03/26 07:51:43;;;;;;;93.65;49.17;;;10.70;99.90;;;;;;5014170;28;20048;-80
2022/03/26 07:54:23;;;;;;;89.85;46.95;;;11.70;99.90;;;;;;5055731;28;20491;-80
2022/03/26 07:56:50;;;;;;;83.00;44.38;;;11.80;99.90;;;;;;5019715;28;20072;-78
2022/03/26 07:59:19;;;;;;;85.45;43.67;;;11.80;99.90;;;;;;5032160;28;20114;-79
2022/03/26 08:02:00;;;;;;;79.95;43.65;;;10.40;99.90;;;;;;5048453;28;20182;-79
2022/03/26 08:04:27;;;;;;;81.50;42.58;;;11.20;99.90;;;;;;5031887;28;20052;-78
2022/03/26 08:07:00;;;;;;;78.25;45.05;;;11.30;99.90;;;;;;5038877;28;20045;-80
2022/03/26 08:09:50;;;;;;;77.32;43.22;;;12.60;99.90;;;;;;5044618;28;20194;-81
2022/03/26 08:12:19;;;;;;;79.22;42.63;;;10.90;99.90;;;;;;5021008;28;20044;-82
2022/03/26 08:14:59;;;;;;;75.47;43.88;;;10.50;99.90;;;;;;5026399;28;20435;-83
2022/03/26 08:17:30;;;;;;;84.38;43.75;;;11.70;99.90;;;;;;5022083;28;20119;-82
2022/03/26 08:20:00;;;;;;;87.10;43.85;;;11.90;99.90;;;;;;5056170;28;20041;-81
2022/03/26 08:22:29;;;;;;;76.25;42.53;;;10.80;99.90;;;;;;5024132;28;20053;-81
2022/03/26 08:24:59;;;;;;;80.00;42.13;;;12.10;99.90;;;;;;5014337;28;20133;-80
2022/03/26 08:27:28;;;;;;;79.93;43.97;;;11.80;99.90;;;;;;5006646;28;20063;-80
2022/03/26 08:29:57;;;;;;;79.22;44.03;;;12.10;99.90;;;;;;5019169;28;20142;-79
2022/03/26 08:32:35;;;;;;;78.85;43.67;;;12.60;99.90;;;;;;5020701;28;20088;-81
2022/03/26 08:35:06;;;;;;;75.22;43.83;;;13.80;99.90;;;;;;5021427;28;20120;-80
2022/03/26 08:37:35;;;;;;;77.22;43.55;;;11.40;99.90;;;;;;5005088;28;20499;-81
2022/03/26 08:40:16;;;;;;;72.82;41.65;;;12.60;99.90;;;;;;5023023;28;20102;-81
2022/03/26 08:43:08;;;;;;;77.32;43.25;;;12.60;99.90;;;;;;5056632;28;20036;-81
2022/03/26 08:45:51;;;;;;;78.40;43.63;;;12.80;99.90;;;;;;5056001;28;20120;-80
2022/03/26 08:48:29;;;;;;;77.40;42.25;;;12.80;99.90;;;;;;5068867;28;20056;-81
2022/03/26 08:51:02;;;;;;;71.63;40.17;;;13.30;99.90;;;;;;5039920;28;20211;-81
2022/03/26 08:53:47;;;;;;;69.20;38.38;;;13.30;99.90;;;;;;5010104;28;20140;-81
2022/03/26 08:56:26;;;;;;;72.47;37.63;;;13.20;99.90;;;;;;4990351;28;20053;-81
2022/03/26 08:59:07;;;;;;;67.60;39.20;;;13.40;99.90;;;;;;5016109;28;20060;-81
2022/03/26 09:01:40;;;;;;;;;;;13.80;99.90;;;;;;4979714;28;20061;-81
2022/03/26 09:04:06;;;;;;;66.18;34.72;;;13.50;99.90;;;;;;5016786;28;19929;-82
2022/03/26 09:06:40;;;;;;;67.95;37.05;;;13.60;99.90;;;;;;5016819;28;20091;-81
2022/03/26 09:09:14;;;;;;;66.25;38.17;;;13.80;99.90;;;;;;5001392;28;20088;-82
2022/03/26 09:11:49;;;;;;;61.08;35.33;;;13.90;99.90;;;;;;5012637;28;20045;-82
2022/03/26 09:14:31;;;;;;;60.83;35.78;;;14.20;99.90;;;;;;5040066;28;20051;-80
2022/03/26 09:17:08;;;;;;;60.08;34.47;;;14.20;99.90;;;;;;5006544;28;20388;-81
2022/03/26 09:19:45;;;;;;;54.10;31.73;;;14.50;99.90;;;;;;4998172;28;20045;-81
2022/03/26 09:22:14;;;;;;;40.85;27.38;;;13.50;99.90;;;;;;5008027;28;20041;-83
2022/03/26 09:24:42;;;;;;;44.17;27.02;;;14.60;99.90;;;;;;5023560;28;20156;-80
2022/03/26 09:27:11;;;;;;;46.65;27.25;;;14.80;99.90;;;;;;5007845;28;20049;-82
2022/03/26 09:29:41;;;;;;;45.22;27.45;;;14.80;99.90;;;;;;5036278;28;20052;-81
2022/03/26 09:32:09;;;;;;;44.60;25.95;;;15.10;99.90;;;;;;4975963;28;20083;-79
2022/03/26 09:34:35;;;;;;;35.08;22.67;;;15.20;99.90;;;;;;5009197;28;20472;-80
2022/03/26 09:37:17;;;;;;;30.45;19.40;;;15.00;99.90;;;;;;5028426;28;20057;-81
2022/03/26 09:40:02;;;;;;;34.47;20.55;;;15.40;99.90;;;;;;4984271;28;20061;-81
2022/03/26 09:42:31;;;;;;;35.63;21.67;;;15.40;99.90;;;;;;5029773;28;20486;-82
2022/03/26 09:45:20;;;;;;;28.52;18.52;;;15.50;99.90;;;;;;5015005;28;20807;-81
2022/03/26 09:47:46;;;;;;;31.60;20.25;;;15.70;99.90;;;;;;5011054;28;20476;-81
2022/03/26 09:50:21;;;;;;;37.85;20.20;;;15.80;99.90;;;;;;5021065;28;20115;-79
2022/03/26 09:53:06;;;;;;;31.40;19.48;;;16.00;99.90;;;;;;5023172;28;20045;-81
2022/03/26 09:56:12;;;;;;;27.70;16.98;;;16.30;99.90;;;;;;4987342;28;20041;-83
2022/03/26 10:02:01;;;;;;;20.38;11.98;;;16.60;97.30;;;;;;4988940;28;20109;-82
2022/03/26 10:05:07;;;;;;;17.67;11.98;;;16.50;96.00;;;;;;5027706;28;20113;-83
2022/03/26 10:07:34;;;;;;;19.83;11.80;;;16.40;95.30;;;;;;5044109;28;20053;-79
2022/03/26 10:10:34;;;;;;;21.20;11.45;;;16.60;96.20;;;;;;5009636;28;20492;-79
2022/03/26 10:13:06;;;;;;;15.23;9.80;;;16.70;95.30;;;;;;5004498;28;20083;-80
2022/03/26 10:15:36;;;;;;;23.30;12.10;;;17.00;94.10;;;;;;5010766;28;20573;-80
2022/03/26 10:18:32;;;;;;;16.30;9.95;;;17.20;94.00;;;;;;5012007;28;20076;-79
2022/03/26 10:21:09;;;;;;;15.68;10.45;;;17.60;92.90;;;;;;4987055;28;20472;-80
2022/03/26 10:23:54;;;;;;;14.80;9.80;;;16.40;92.60;;;;;;5017634;28;20057;-80
2022/03/26 10:26:28;;;;;;;18.75;10.43;;;17.20;91.30;;;;;;5019902;28;20142;-78
2022/03/26 10:29:10;;;;;;;18.50;11.00;;;17.50;90.70;;;;;;5022187;28;20097;-81
2022/03/26 10:38:05;;;;;;;19.70;10.32;;;18.10;90.00;;;;;;4982921;28;20502;-80
2022/03/26 10:40:45;;;;;;;22.40;9.27;;;18.20;89.50;;;;;;4962624;29;20059;-82
2022/03/26 10:43:17;;;;;;;17.70;8.50;;;18.70;86.70;;;;;;4975755;28;20069;-81
2022/03/26 10:46:07;;;;;;;;;;;;;;;;;;;;;
2022/03/26 10:48:42;;;;;;;14.52;7.97;;;18.50;86.20;;;;;;4962260;28;20129;-80
2022/03/26 10:51:18;;;;;;;13.13;7.80;;;18.60;85.50;;;;;;4968842;28;20422;-80
2022/03/26 10:57:25;;;;;;;10.10;6.88;;;18.90;85.40;;;;;;4970246;28;20059;-82
2022/03/26 11:00:11;;;;;;;11.23;5.65;;;18.90;82.20;;;;;;4969172;28;20055;-82
2022/03/26 11:02:41;;;;;;;9.80;6.18;;;19.20;79.70;;;;;;4963641;28;20054;-81
2022/03/26 11:05:14;;;;;;;11.88;5.93;;;19.10;80.70;;;;;;4985254;28;20093;-80
2022/03/26 11:07:54;;;;;;;8.25;6.40;;;19.10;80.50;;;;;;5021580;28;20048;-80
2022/03/26 11:11:08;;;;;;;7.47;5.43;;;19.10;81.00;;;;;;5044676;28;20044;-82
2022/03/26 11:14:02;;;;;;;8.32;5.00;;;19.40;78.60;;;;;;5028554;28;20060;-81
2022/03/26 11:17:24;;;;;;;8.25;4.75;;;19.40;78.50;;;;;;5064118;28;20049;-81
2022/03/26 11:20:48;;;;;;;9.93;5.03;;;19.50;77.20;;;;;;5011290;28;20053;-81
2022/03/26 11:24:13;;;;;;;8.93;4.68;;;19.50;77.50;;;;;;5038555;28;20507;-80
2022/03/26 11:27:07;;;;;;;6.65;4.35;;;19.20;75.60;;;;;;5011034;28;20415;-81
2022/03/26 11:30:05;;;;;;;7.55;4.65;;;18.90;76.80;;;;;;5027702;28;20052;-82
2022/03/26 11:33:07;;;;;;;7.03;4.22;;;18.30;78.90;;;;;;5028028;28;20054;-80
2022/03/26 11:36:25;;;;;;;8.02;4.18;;;19.20;78.30;;;;;;5046795;28;20068;-82
2022/03/26 11:39:25;;;;;;;7.22;4.45;;;19.70;77.00;;;;;;5020820;28;20052;-79
2022/03/26 11:42:21;;;;;;;7.70;4.40;;;19.90;76.70;;;;;;5056061;28;20053;-81
2022/03/26 11:51:27;;;;;;;7.20;3.90;;;20.20;72.20;;;;;;5038611;28;20315;-80
2022/03/26 11:57:47;;;;;;;;;;;;;;;;;;;;;
2022/03/26 12:00:21;;;;;;;17.08;5.20;;;20.30;74.40;;;;;;4980085;28;20094;-81
2022/03/26 12:02:57;;;;;;;10.18;5.07;;;19.30;75.00;;;;;;5044849;28;20067;-80
2022/03/26 12:08:17;;;;;;;11.20;5.18;;;19.20;77.00;;;;;;5058567;28;20534;-80
2022/03/26 12:10:44;;;;;;;6.63;4.20;;;18.80;79.00;;;;;;5048405;28;20131;-81
2022/03/26 12:13:10;;;;;;;7.32;4.18;;;18.50;78.30;;;;;;5044774;28;20045;-79
2022/03/26 12:15:57;;;;;;;9.18;5.28;;;19.20;81.60;;;;;;5074515;28;20083;-80
2022/03/26 12:18:32;;;;;;;9.50;5.57;;;18.10;82.10;;;;;;5053416;28;20048;-81
2022/03/26 12:21:26;;;;;;;8.52;4.32;;;17.90;83.70;;;;;;5086959;28;20095;-80
2022/03/26 12:24:43;;;;;;;8.73;4.28;;;16.90;83.50;;;;;;5037116;28;20045;-80
2022/03/26 12:27:42;;;;;;;9.07;4.70;;;17.00;86.50;;;;;;4998489;28;20054;-80
2022/03/26 12:30:38;;;;;;;9.40;4.97;;;17.20;89.20;;;;;;4975672;28;20062;-79
2022/03/26 12:33:28;;;;;;;8.82;4.32;;;16.40;90.50;;;;;;5040416;28;20067;-80
2022/03/26 12:36:14;;;;;;;10.63;5.05;;;15.60;90.20;;;;;;5021036;28;20060;-84
2022/03/26 12:39:00;;;;;;;9.80;4.60;;;16.20;91.20;;;;;;5036412;28;20045;-81
2022/03/26 12:41:45;;;;;;;7.72;4.93;;;15.80;91.90;;;;;;5020935;28;20057;-80
2022/03/26 12:45:00;;;;;;;10.95;5.10;;;15.50;93.30;;;;;;5031597;28;20055;-81
2022/03/26 12:47:42;;;;;;;10.18;5.32;;;15.50;94.10;;;;;;5042996;28;20059;-80
2022/03/26 12:50:17;;;;;;;8.90;4.95;;;15.40;94.00;;;;;;5009979;28;20084;-82
2022/03/26 12:52:55;;;;;;;7.82;4.97;;;15.00;94.40;;;;;;5028135;28;20158;-80
2022/03/26 12:55:28;;;;;;;9.52;5.55;;;15.20;95.00;;;;;;5036176;28;20048;-80
2022/03/26 13:00:59;;;;;;;7.38;4.88;;;15.10;95.60;;;;;;5021343;28;20054;-82
2022/03/26 13:03:30;;;;;;;9.35;4.97;;;15.50;96.20;;;;;;5005650;28;20048;-81
2022/03/26 13:06:33;;;;;;;;;;;;;;;;;;;;;
2022/03/26 13:09:22;;;;;;;10.20;4.50;;;15.30;95.70;;;;;;5037392;28;20059;-82
2022/03/26 13:11:56;;;;;;;9.55;4.82;;;15.70;96.20;;;;;;5005795;28;20420;-81
2022/03/26 13:14:22;;;;;;;8.02;4.25;;;15.40;95.50;;;;;;5004192;28;20049;-81
2022/03/26 13:16:55;;;;;;;7.43;4.03;;;16.30;95.70;;;;;;5045656;28;20115;-80
2022/03/26 13:19:36;;;;;;;6.80;3.75;;;16.10;95.70;;;;;;5027731;28;20786;-82
2022/03/26 13:22:17;;;;;;;8.35;4.20;;;16.00;95.70;;;;;;5039606;28;20045;-82
2022/03/26 13:24:57;;;;;;;7.80;3.95;;;14.90;96.10;;;;;;5018675;28;20033;-82
2022/03/26 13:27:47;;;;;;;6.80;3.30;;;15.80;97.00;;;;;;5054049;28;20025;-83
2022/03/26 13:30:23;;;;;;;9.10;3.65;;;15.60;96.80;;;;;;5056924;28;20029;-84
2022/03/26 13:33:11;;;;;;;8.50;3.95;;;15.90;97.30;;;;;;5029038;28;20092;-83
2022/03/26 13:36:05;;;;;;;6.93;3.95;;;15.80;97.60;;;;;;5034175;28;20085;-83
2022/03/26 13:39:04;;;;;;;8.55;3.65;;;15.50;97.70;;;;;;5018977;28;20057;-82
2022/03/26 13:42:08;;;;;;;5.93;3.60;;;15.30;98.40;;;;;;5022458;28;20049;-83
2022/03/26 13:44:55;;;;;;;7.90;3.88;;;15.10;98.30;;;;;;5051543;28;20045;-82
2022/03/26 13:48:19;;;;;;;6.40;3.70;;;15.20;98.90;;;;;;4969009;29;20089;-81
2022/03/26 13:50:51;;;;;;;7.63;3.22;;;14.60;99.70;;;;;;4990275;28;20066;-83
2022/03/26 13:53:23;;;;;;;9.30;3.40;;;15.00;99.90;;;;;;4958407;29;20087;-83